Airfield :
LOGIN :

Register | Disclaimer

   EN    FR    IT 

 










Legend :    VFR   Marginal VFR   IFR   Intensive IFR   Very Intensive IFR
Visi :
Ceiling :
>= 8 km
>= 3000ft
5 to 8 km
1000 to 3000 ft
1500m to 5 km
500 to 1000 ft
800 to 1500m
200 to 500 ft
< 800m
< 200 ft
Symbols :   Thunderstorms  Fog  Heavy snow  Heavy precipitations  Wind > 20 kt
SIGMETs :     Misc.  Thunderstorms  Icing  Turbulence  Mountain Waves  Volcanic Ashes






- Airport Elevation : 13 ft
- IATA code : OST


EBOS - Oostend bruges Int.

CURRENT METAR :
  • 052050Z 05007KT CAVOK 05/03 Q1044 NOSIG

EXPIRED METARs :
  • 052020Z 04009KT 9999 FEW020 05/03 Q1044 NOSIG
  • 051950Z 03010KT 9999 FEW020 06/03 Q1044 NOSIG
  • 051920Z 03009KT 9999 FEW020 06/03 Q1044 NOSIG
  • 051850Z 03010KT 9999 FEW020 06/03 Q1044 NOSIG
  • 051820Z 03010KT 9999 FEW020 06/03 Q1044 NOSIG

TAF TAF EBOS
Valid from the 05 at 18:00 until the 07 at 00:00 UTC


051720Z 0518/0624 02009KT 9999 FEW025
PROB30
TEMPO 0604/0608 1200 MIFG



MET'MAP, your aeronautical weather chart ! - Copyright ORBIFLY December 2007 - Disclaimer

ORBIFLY MET'MAP TEAM :

Programming & Development : Alexandra Zaïnal
Original concept : Baudouin d'Aumeries
Technical & hardware support : Manuel Goepfert
Assistance : Marc-Olivier Méhu




SOURCES & CREDITS :

   NOAA